createdAt,value
2019-04-19T00:00:12.785Z,52.53
2019-04-19T00:02:44.644Z,52.78
2019-04-19T00:05:32.745Z,52.87
2019-04-19T00:08:13.354Z,53.39
2019-04-19T00:10:35.300Z,53.71
2019-04-19T00:12:56.586Z,53.94
2019-04-19T00:15:18.879Z,53.93
2019-04-19T00:17:45.801Z,54.04
2019-04-19T00:20:31.332Z,54.12
2019-04-19T00:22:59.376Z,54.25
2019-04-19T00:25:11.418Z,54.44
2019-04-19T00:27:46.113Z,54.72
2019-04-19T00:30:18.239Z,54.98
2019-04-19T00:32:54.828Z,55.06
2019-04-19T00:35:05.646Z,55.23
2019-04-19T00:37:33.351Z,55.53
2019-04-19T00:40:22.701Z,55.80
2019-04-19T00:42:48.401Z,55.76
2019-04-19T00:45:27.761Z,55.70
2019-04-19T00:47:51.642Z,55.65
2019-04-19T00:50:18.494Z,56.04
2019-04-19T00:52:53.216Z,55.78
2019-04-19T00:55:13.840Z,55.80
2019-04-19T00:57:42.020Z,56.08
2019-04-19T01:00:06.391Z,56.42
2019-04-19T01:02:36.402Z,56.60
2019-04-19T01:05:08.872Z,56.75
2019-04-19T01:07:35.729Z,56.86
2019-04-19T01:10:14.915Z,57.12
2019-04-19T01:12:47.913Z,57.08
2019-04-19T01:15:09.343Z,57.06
2019-04-19T01:17:46.083Z,57.08
2019-04-19T01:20:00.273Z,57.28
2019-04-19T01:22:26.151Z,57.39
2019-04-19T01:24:51.601Z,57.37
2019-04-19T01:27:24.717Z,57.60
2019-04-19T01:29:52.684Z,57.76
2019-04-19T01:32:19.435Z,57.67
2019-04-19T01:34:46.722Z,57.77
2019-04-19T01:37:18.711Z,57.74
2019-04-19T01:40:00.794Z,57.80
2019-04-19T01:42:29.491Z,57.81
2019-04-19T01:44:56.846Z,57.88
2019-04-19T01:47:31.918Z,57.95
2019-04-19T01:49:56.255Z,57.95
2019-04-19T01:52:41.903Z,58.19
2019-04-19T01:54:54.193Z,58.37
2019-04-19T01:57:12.767Z,58.52
2019-04-19T01:59:45.128Z,58.42
2019-04-19T02:02:13.732Z,58.49
2019-04-19T02:04:37.698Z,58.60
2019-04-19T02:07:11.172Z,58.62
2019-04-19T02:09:48.709Z,58.80
2019-04-19T02:12:18.153Z,58.85
2019-04-19T02:14:37.434Z,58.99
2019-04-19T02:17:03.182Z,58.95
2019-04-19T02:19:29.401Z,58.92
2019-04-19T02:21:55.550Z,59.42
2019-04-19T02:24:29.690Z,59.41
2019-04-19T02:26:56.806Z,59.69
2019-04-19T02:29:21.801Z,59.58
2019-04-19T02:32:15.555Z,59.65
2019-04-19T02:34:41.518Z,59.64
2019-04-19T02:42:21.360Z,60.65
2019-04-19T02:44:46.021Z,60.85
2019-04-19T02:49:47.971Z,60.11
2019-04-19T02:52:19.996Z,60.21
2019-04-19T02:55:00.222Z,60.26
2019-04-19T02:57:29.772Z,60.49
2019-04-19T02:59:56.862Z,60.71
2019-04-19T03:02:35.253Z,60.72
2019-04-19T03:06:54.300Z,60.83
2019-04-19T03:09:18.311Z,60.99
2019-04-19T03:11:56.290Z,61.24
2019-04-19T03:14:24.558Z,61.15
2019-04-19T03:16:58.193Z,61.46
2019-04-19T03:19:22.269Z,61.41
2019-04-19T03:21:50.349Z,61.66
2019-04-19T03:24:18.701Z,61.35
2019-04-19T03:26:46.196Z,61.51
2019-04-19T03:29:14.850Z,61.96
2019-04-19T03:31:58.831Z,62.05
2019-04-19T03:34:31.503Z,61.99
2019-04-19T03:36:42.491Z,62.09
2019-04-19T03:39:17.736Z,62.09
2019-04-19T03:41:57.412Z,62.13
2019-04-19T03:44:25.268Z,62.35
2019-04-19T03:46:58.012Z,62.29
2019-04-19T03:49:30.462Z,62.36
2019-04-19T03:51:57.391Z,62.65
2019-04-19T03:54:21.738Z,62.89
2019-04-19T03:56:43.745Z,63.12
2019-04-19T03:58:57.403Z,63.24
2019-04-19T04:01:28.803Z,63.29
2019-04-19T04:04:01.919Z,63.19
2019-04-19T04:06:28.786Z,63.28
2019-04-19T04:09:10.721Z,63.18
2019-04-19T04:11:51.096Z,62.93
2019-04-19T04:14:21.828Z,63.22
2019-04-19T04:16:45.879Z,62.85
2019-04-19T04:19:10.293Z,63.14
2019-04-19T04:21:43.385Z,63.19
2019-04-19T04:24:17.410Z,63.19
2019-04-19T04:26:48.503Z,63.10
2019-04-19T04:29:13.611Z,62.98
2019-04-19T04:31:44.105Z,62.82
2019-04-19T04:34:10.272Z,62.92
2019-04-19T04:36:46.468Z,62.81
2019-04-19T04:38:58.558Z,62.57
2019-04-19T04:41:28.384Z,62.48
2019-04-19T04:44:13.534Z,61.95
2019-04-19T04:46:48.571Z,61.95
2019-04-19T04:49:32.698Z,61.59
2019-04-19T04:51:44.523Z,61.63
2019-04-19T04:54:08.423Z,61.72
2019-04-19T04:56:47.955Z,61.62
2019-04-19T04:59:11.614Z,61.22
2019-04-19T05:01:46.489Z,60.97
2019-04-19T05:04:15.218Z,60.48
2019-04-19T05:06:54.355Z,60.43
2019-04-19T05:09:25.171Z,60.26
2019-04-19T05:11:47.336Z,60.09
2019-04-19T05:14:17.918Z,59.14
2019-04-19T05:17:12.475Z,58.62
2019-04-19T05:19:13.083Z,58.34
2019-04-19T05:21:40.164Z,57.47
2019-04-19T05:24:15.852Z,56.47
2019-04-19T05:29:03.484Z,55.94
2019-04-19T05:31:26.707Z,55.53
2019-04-19T05:34:08.118Z,54.88
2019-04-19T05:36:35.153Z,53.46
2019-04-19T05:39:11.286Z,53.68
2019-04-19T05:41:34.980Z,52.78
2019-04-19T05:44:31.556Z,51.95
2019-04-19T05:47:06.290Z,52.03
2019-04-19T05:49:18.129Z,51.39
2019-04-19T05:51:47.345Z,50.94
2019-04-19T05:54:03.492Z,50.78
2019-04-19T05:56:26.355Z,50.60
2019-04-19T05:59:03.288Z,50.06
2019-04-19T06:01:43.181Z,49.40
2019-04-19T06:04:07.508Z,49.09
2019-04-19T06:06:45.384Z,47.78
2019-04-19T06:08:47.607Z,47.34
2019-04-19T06:11:17.194Z,47.85
2019-04-19T06:13:51.974Z,46.71
2019-04-19T06:16:25.425Z,46.23
2019-04-19T06:18:54.018Z,46.25
2019-04-19T06:21:27.995Z,45.09
2019-04-19T06:24:01.716Z,44.75
2019-04-19T06:29:01.808Z,43.86
2019-04-19T06:31:27.933Z,43.34
2019-04-19T06:33:53.364Z,43.20
2019-04-19T06:36:05.821Z,42.98
2019-04-19T06:38:30.920Z,42.68
2019-04-19T06:41:02.208Z,41.68
2019-04-19T06:43:39.454Z,41.57
2019-04-19T06:46:10.532Z,41.05
2019-04-19T06:48:26.992Z,40.72
2019-04-19T06:50:55.628Z,40.06
2019-04-19T06:53:18.982Z,39.72
2019-04-19T06:55:49.895Z,39.13
2019-04-19T06:58:20.443Z,39.34
2019-04-19T07:00:57.288Z,38.54
2019-04-19T07:03:11.424Z,38.31
2019-04-19T07:05:49.688Z,38.23
2019-04-19T07:08:51.448Z,38.02
2019-04-19T07:11:00.512Z,37.98
2019-04-19T07:13:17.467Z,37.51
2019-04-19T07:15:59.981Z,37.43
2019-04-19T07:18:20.075Z,36.76
2019-04-19T07:20:47.190Z,36.29
2019-04-19T07:23:16.175Z,36.04
2019-04-19T07:25:47.760Z,35.99
2019-04-19T07:28:04.958Z,35.68
2019-04-19T07:30:22.762Z,35.62
2019-04-19T07:32:55.558Z,35.77
2019-04-19T07:35:43.827Z,35.33
2019-04-19T07:38:15.217Z,34.04
2019-04-19T07:40:38.456Z,34.10
2019-04-19T07:43:02.690Z,34.13
2019-04-19T07:45:24.714Z,34.18
2019-04-19T07:47:56.606Z,33.86
2019-04-19T07:50:22.726Z,34.15
2019-04-19T07:52:52.669Z,33.72
2019-04-19T07:55:14.184Z,32.55
2019-04-19T07:58:16.999Z,32.04
2019-04-19T08:03:17.324Z,31.63
2019-04-19T08:05:43.916Z,31.35
2019-04-19T08:13:12.862Z,30.80
2019-04-19T08:18:20.875Z,29.78
2019-04-19T08:27:45.767Z,27.81
2019-04-19T08:30:08.411Z,27.46
2019-04-19T08:32:32.286Z,26.58
2019-04-19T08:35:02.801Z,26.65
2019-04-19T08:37:33.989Z,27.00
2019-04-19T08:40:08.656Z,25.97
2019-04-19T08:42:42.609Z,26.51
2019-04-19T08:44:59.631Z,26.21
2019-04-19T08:47:32.661Z,25.84
2019-04-19T08:50:00.947Z,25.35
2019-04-19T08:52:31.680Z,25.60
2019-04-19T08:55:14.439Z,24.99
2019-04-19T08:57:26.071Z,25.09
2019-04-19T09:00:18.722Z,24.18
2019-04-19T09:02:34.486Z,24.25
2019-04-19T09:05:04.835Z,22.92
2019-04-19T09:07:47.315Z,23.57
2019-04-19T09:10:18.088Z,22.75
2019-04-19T09:12:32.364Z,22.23
2019-04-19T09:15:01.030Z,22.30
2019-04-19T09:18:09.059Z,22.33
2019-04-19T09:22:24.355Z,22.90
2019-04-19T09:24:45.017Z,22.46
2019-04-19T09:27:29.161Z,22.95
2019-04-19T09:29:55.147Z,23.08
2019-04-19T09:32:12.813Z,22.12
2019-04-19T09:34:39.090Z,22.29
2019-04-19T09:37:13.045Z,22.12
2019-04-19T09:39:45.428Z,22.56
2019-04-19T09:42:15.595Z,22.09
2019-04-19T09:44:41.572Z,22.69
2019-04-19T09:47:05.724Z,21.90
2019-04-19T09:49:47.782Z,22.61
2019-04-19T09:52:28.949Z,22.29
2019-04-19T09:54:51.726Z,23.17
2019-04-19T09:57:13.188Z,22.86
2019-04-19T09:59:31.190Z,22.38
2019-04-19T10:01:58.020Z,21.81
2019-04-19T10:04:23.086Z,21.55
2019-04-19T10:06:51.114Z,22.28
2019-04-19T10:09:22.211Z,22.47
2019-04-19T10:11:47.244Z,22.10
2019-04-19T10:14:14.973Z,22.19
2019-04-19T10:16:46.835Z,22.58
2019-04-19T10:19:13.281Z,22.64
2019-04-19T10:21:43.585Z,22.22
2019-04-19T10:24:14.753Z,22.50
2019-04-19T10:26:52.578Z,21.65
2019-04-19T10:29:26.555Z,22.09
2019-04-19T10:31:52.276Z,21.77
2019-04-19T10:34:18.580Z,22.17
2019-04-19T10:36:47.743Z,22.09
2019-04-19T10:39:16.735Z,22.06
2019-04-19T10:41:44.481Z,21.33
2019-04-19T10:44:16.579Z,22.30
2019-04-19T10:46:40.624Z,22.23
2019-04-19T10:49:13.116Z,22.09
2019-04-19T10:51:41.872Z,21.64
2019-04-19T10:54:10.709Z,21.83
2019-04-19T10:56:40.561Z,22.63
2019-04-19T10:59:07.168Z,21.65
2019-04-19T11:01:33.848Z,22.22
2019-04-19T11:04:00.222Z,21.86
2019-04-19T11:06:27.193Z,21.17
2019-04-19T11:08:56.743Z,21.60
2019-04-19T11:11:23.591Z,20.98
2019-04-19T11:13:56.764Z,20.61
2019-04-19T11:16:23.638Z,20.30
2019-04-19T11:18:49.983Z,19.55
2019-04-19T11:21:17.784Z,19.51
2019-04-19T11:23:45.464Z,20.06
2019-04-19T11:26:12.710Z,19.63
2019-04-19T11:28:39.193Z,20.04
2019-04-19T11:31:19.423Z,19.62
2019-04-19T11:33:47.401Z,20.68
2019-04-19T11:36:15.341Z,19.39
2019-04-19T11:38:43.047Z,18.02
2019-04-19T11:41:09.612Z,17.35
2019-04-19T11:43:36.293Z,15.78
2019-04-19T11:46:04.060Z,15.20
2019-04-19T11:48:32.997Z,14.04
2019-04-19T11:51:00.060Z,12.27
2019-04-19T11:53:40.680Z,10.74
2019-04-19T11:56:10.580Z,9.26
2019-04-19T11:58:40.361Z,9.16
2019-04-19T12:01:14.619Z,7.57
2019-04-19T12:03:43.536Z,8.22
2019-04-19T12:06:10.088Z,8.63
2019-04-19T12:08:36.445Z,8.08
2019-04-19T12:11:02.767Z,6.57
2019-04-19T12:13:30.684Z,6.48
2019-04-19T12:15:59.001Z,5.95
2019-04-19T12:18:28.576Z,5.80
2019-04-19T12:20:55.463Z,5.00
2019-04-19T12:23:23.435Z,5.22
2019-04-19T12:25:51.367Z,5.11
2019-04-19T12:28:19.896Z,6.28
2019-04-19T12:30:50.610Z,5.70
2019-04-19T12:33:15.278Z,5.46
2019-04-19T12:35:43.218Z,5.59
2019-04-19T12:38:10.339Z,4.09
2019-04-19T12:40:40.161Z,3.90
2019-04-19T12:43:07.740Z,4.23
2019-04-19T12:45:34.146Z,3.74
2019-04-19T12:48:00.956Z,3.58
2019-04-19T12:50:29.523Z,3.63
2019-04-19T12:52:57.978Z,3.58
2019-04-19T12:55:24.395Z,3.08
2019-04-19T12:57:54.166Z,3.52
2019-04-19T13:00:23.567Z,3.74
2019-04-19T13:02:52.013Z,3.81
2019-04-19T13:05:20.440Z,4.38
2019-04-19T13:07:47.741Z,4.23
2019-04-19T13:10:15.161Z,4.01
2019-04-19T13:12:43.898Z,3.66
2019-04-19T13:15:11.486Z,3.42
2019-04-19T13:17:38.219Z,3.87
2019-04-19T13:20:12.767Z,4.33
2019-04-19T13:22:34.523Z,3.99
2019-04-19T13:25:01.600Z,3.46
2019-04-19T13:27:37.368Z,3.75
2019-04-19T13:30:09.717Z,4.06
2019-04-19T13:32:25.984Z,4.21
2019-04-19T13:34:52.453Z,4.41
2019-04-19T13:37:23.485Z,3.82
2019-04-19T13:40:02.099Z,4.52
2019-04-19T13:42:32.902Z,4.32
2019-04-19T13:45:12.198Z,4.07
2019-04-19T13:47:28.809Z,4.35
2019-04-19T13:49:55.981Z,4.45
2019-04-19T13:52:22.511Z,4.98
2019-04-19T13:54:50.480Z,4.52
2019-04-19T13:57:17.620Z,4.85
2019-04-19T13:59:51.507Z,4.72
2019-04-19T14:02:12.626Z,4.17
2019-04-19T14:04:39.807Z,4.20
2019-04-19T14:07:07.285Z,3.91
2019-04-19T14:09:33.847Z,3.70
2019-04-19T14:12:00.885Z,3.96
2019-04-19T14:14:27.824Z,3.72
2019-04-19T14:16:55.659Z,3.60
2019-04-19T14:19:22.695Z,3.91
2019-04-19T14:21:49.222Z,3.38
2019-04-19T14:24:15.639Z,3.65
2019-04-19T14:26:48.675Z,4.07
2019-04-19T14:29:11.710Z,3.83
2019-04-19T14:31:38.235Z,3.74
2019-04-19T14:34:04.873Z,4.19
2019-04-19T14:36:31.774Z,3.98
2019-04-19T14:38:58.332Z,4.46
2019-04-19T14:41:25.422Z,4.21
2019-04-19T14:43:52.534Z,3.81
2019-04-19T14:46:18.987Z,3.86
2019-04-19T14:48:45.351Z,3.53
2019-04-19T14:51:19.523Z,3.53
2019-04-19T14:53:40.924Z,3.24
2019-04-19T14:56:09.062Z,3.30
2019-04-19T14:58:36.261Z,4.13
2019-04-19T15:01:08.824Z,3.30
2019-04-19T15:03:36.888Z,3.82
2019-04-19T15:06:03.892Z,4.42
2019-04-19T15:08:30.756Z,3.30
2019-04-19T15:10:57.701Z,3.98
2019-04-19T15:13:25.127Z,4.02
2019-04-19T15:15:52.124Z,4.09
2019-04-19T15:18:19.110Z,3.95
2019-04-19T15:20:56.179Z,3.81
2019-04-19T15:23:16.239Z,3.80
2019-04-19T15:25:42.768Z,3.38
2019-04-19T15:28:09.114Z,3.73
2019-04-19T15:30:35.503Z,3.50
2019-04-19T15:33:18.959Z,3.82
2019-04-19T15:35:45.809Z,3.54
2019-04-19T15:38:12.174Z,4.11
2019-04-19T15:40:38.464Z,4.29
2019-04-19T15:43:05.282Z,3.87
2019-04-19T15:45:32.382Z,4.28
2019-04-19T15:48:00.267Z,4.82
2019-04-19T15:50:27.620Z,4.22
2019-04-19T15:52:54.144Z,4.80
2019-04-19T15:55:21.922Z,4.41
2019-04-19T15:57:48.634Z,4.18
2019-04-19T16:00:22.298Z,5.02
2019-04-19T16:02:51.845Z,4.66
2019-04-19T16:05:20.012Z,4.30
2019-04-19T16:07:55.715Z,4.21
2019-04-19T16:10:33.244Z,4.33
2019-04-19T16:13:02.222Z,4.81
2019-04-19T16:15:29.801Z,4.70
2019-04-19T16:17:57.786Z,4.54
2019-04-19T16:20:25.171Z,4.51
2019-04-19T16:22:52.136Z,4.94
2019-04-19T16:25:19.160Z,5.56
2019-04-19T16:27:46.789Z,4.69
2019-04-19T16:30:16.439Z,5.23
2019-04-19T16:32:43.491Z,5.38
2019-04-19T16:35:12.002Z,4.94
2019-04-19T16:37:39.253Z,4.86
2019-04-19T16:40:16.450Z,4.87
2019-04-19T16:42:43.509Z,5.65
2019-04-19T16:45:12.379Z,5.08
2019-04-19T16:47:39.481Z,5.16
2019-04-19T16:50:06.831Z,6.26
2019-04-19T16:52:33.445Z,5.45
2019-04-19T16:55:00.564Z,5.53
2019-04-19T16:57:30.422Z,6.07
2019-04-19T16:59:55.741Z,6.45
2019-04-19T17:02:22.727Z,6.16
2019-04-19T17:04:50.426Z,5.96
2019-04-19T17:07:18.525Z,6.24
2019-04-19T17:09:45.248Z,6.25
2019-04-19T17:12:12.539Z,7.72
2019-04-19T17:14:39.243Z,6.46
2019-04-19T17:17:08.602Z,6.57
2019-04-19T17:19:36.967Z,7.13
2019-04-19T17:22:11.861Z,8.64
2019-04-19T17:24:32.273Z,10.73
2019-04-19T17:26:58.859Z,10.76
2019-04-19T17:29:26.757Z,12.96
2019-04-19T17:31:54.219Z,12.46
2019-04-19T17:34:20.790Z,12.85
2019-04-19T17:36:48.425Z,13.63
2019-04-19T17:39:15.015Z,13.84
2019-04-19T17:41:42.842Z,14.69
2019-04-19T17:44:09.420Z,15.05
2019-04-19T17:46:36.206Z,15.22
2019-04-19T17:49:02.735Z,15.68
2019-04-19T17:51:29.635Z,16.09
2019-04-19T17:53:56.351Z,16.22
2019-04-19T17:56:23.644Z,16.43
2019-04-19T17:58:50.150Z,16.88
2019-04-19T18:01:18.058Z,17.04
2019-04-19T18:03:44.947Z,17.27
2019-04-19T18:06:12.201Z,17.26
2019-04-19T18:08:39.832Z,17.53
2019-04-19T18:11:07.706Z,18.11
2019-04-19T18:13:35.213Z,18.39
2019-04-19T18:16:02.743Z,19.08
2019-04-19T18:18:39.123Z,19.02
2019-04-19T18:21:02.087Z,19.31
2019-04-19T18:23:38.217Z,19.68
2019-04-19T18:25:57.527Z,20.01
2019-04-19T18:28:34.878Z,21.56
2019-04-19T18:30:55.698Z,21.00
2019-04-19T18:33:29.736Z,21.06
2019-04-19T18:36:03.349Z,23.17
2019-04-19T18:38:25.820Z,22.61
2019-04-19T18:40:51.346Z,21.90
2019-04-19T18:43:27.757Z,22.47
2019-04-19T18:45:47.908Z,22.79
2019-04-19T18:48:15.652Z,23.22
2019-04-19T18:50:48.393Z,23.63
2019-04-19T18:53:19.036Z,24.73
2019-04-19T18:55:44.162Z,24.88
2019-04-19T18:58:19.186Z,25.84
2019-04-19T19:00:44.538Z,25.72
2019-04-19T19:03:09.367Z,25.97
2019-04-19T19:05:44.113Z,26.16
2019-04-19T19:08:13.713Z,26.20
2019-04-19T19:10:40.963Z,28.23
2019-04-19T19:13:02.481Z,26.30
2019-04-19T19:15:40.043Z,29.75
2019-04-19T19:17:59.827Z,29.51
2019-04-19T19:20:36.675Z,28.67
2019-04-19T19:23:15.089Z,28.75
2019-04-19T19:25:47.241Z,28.50
2019-04-19T19:28:06.222Z,27.95
2019-04-19T19:30:42.742Z,28.12
2019-04-19T19:33:18.055Z,28.43
2019-04-19T19:35:45.841Z,29.74
2019-04-19T19:38:15.537Z,29.62
2019-04-19T19:40:55.393Z,30.56
2019-04-19T19:43:27.433Z,30.90
2019-04-19T19:45:50.787Z,31.45
2019-04-19T19:48:25.977Z,31.70
2019-04-19T19:51:06.107Z,31.92
2019-04-19T19:56:07.336Z,32.41
2019-04-19T19:58:23.613Z,31.81
2019-04-19T20:00:56.747Z,32.13
2019-04-19T20:03:17.524Z,32.42
2019-04-19T20:05:40.422Z,32.25
2019-04-19T20:08:05.944Z,32.48
2019-04-19T20:10:39.826Z,32.64
2019-04-19T20:13:04.926Z,32.58
2019-04-19T20:15:34.010Z,33.14
2019-04-19T20:17:59.418Z,32.89
2019-04-19T20:20:28.248Z,34.23
2019-04-19T20:22:55.858Z,34.02
2019-04-19T20:25:35.751Z,33.71
2019-04-19T20:27:53.753Z,34.08
2019-04-19T20:30:19.913Z,34.39
2019-04-19T20:32:52.887Z,33.88
2019-04-19T20:35:19.570Z,34.54
2019-04-19T20:37:46.644Z,34.92
2019-04-19T20:40:17.178Z,36.27
2019-04-19T20:43:07.540Z,36.01
2019-04-19T20:45:24.143Z,36.53
2019-04-19T20:47:46.172Z,36.60
2019-04-19T20:50:21.214Z,37.13
2019-04-19T20:52:51.117Z,38.32
2019-04-19T20:55:28.116Z,38.56
2019-04-19T20:57:55.718Z,39.01
2019-04-19T21:00:16.563Z,39.19
2019-04-19T21:02:44.009Z,39.36
2019-04-19T21:05:11.419Z,38.97
2019-04-19T21:07:40.350Z,38.92
2019-04-19T21:10:12.866Z,39.86
2019-04-19T21:12:37.953Z,39.20
2019-04-19T21:15:13.894Z,40.15
2019-04-19T21:17:42.412Z,39.94
2019-04-19T21:20:06.829Z,40.66
2019-04-19T21:22:36.598Z,40.05
2019-04-19T21:25:13.969Z,41.11
2019-04-19T21:27:33.147Z,41.33
2019-04-19T21:30:04.205Z,41.24
2019-04-19T21:32:32.145Z,41.36
2019-04-19T21:35:02.020Z,41.98
2019-04-19T21:37:29.162Z,42.29
2019-04-19T21:39:55.850Z,41.71
2019-04-19T21:42:23.847Z,42.07
2019-04-19T21:44:51.590Z,42.34
2019-04-19T21:47:18.358Z,42.27
2019-04-19T21:49:50.870Z,42.39
2019-04-19T21:52:17.367Z,42.48
2019-04-19T21:54:42.144Z,42.90
2019-04-19T21:57:22.602Z,42.74
2019-04-19T21:59:44.238Z,43.11
2019-04-19T22:02:25.633Z,43.39
2019-04-19T22:04:49.096Z,43.53
2019-04-19T22:07:15.070Z,43.75
2019-04-19T22:09:47.567Z,43.84
2019-04-19T22:12:10.263Z,44.34
2019-04-19T22:14:36.713Z,44.18
2019-04-19T22:17:05.543Z,44.16
2019-04-19T22:19:35.206Z,44.57
2019-04-19T22:22:00.892Z,44.65
2019-04-19T22:24:32.361Z,44.91
2019-04-19T22:26:57.513Z,44.88
2019-04-19T22:29:24.076Z,45.22
2019-04-19T22:31:51.766Z,45.42
2019-04-19T22:34:18.814Z,45.76
2019-04-19T22:36:50.237Z,46.15
2019-04-19T22:39:14.115Z,46.45
2019-04-19T22:41:41.253Z,46.53
2019-04-19T22:44:08.902Z,46.61
2019-04-19T22:46:41.821Z,46.67
2019-04-19T22:49:09.536Z,46.97
2019-04-19T22:51:32.909Z,47.42
2019-04-19T22:54:00.902Z,47.43
2019-04-19T22:56:34.596Z,47.55
2019-04-19T22:58:58.163Z,47.52
2019-04-19T23:01:28.012Z,47.52
2019-04-19T23:03:54.709Z,47.32
2019-04-19T23:06:24.757Z,47.52
2019-04-19T23:08:50.516Z,47.73
2019-04-19T23:11:17.365Z,48.00
2019-04-19T23:13:45.299Z,48.25
2019-04-19T23:16:12.293Z,48.40
2019-04-19T23:18:41.287Z,48.46
2019-04-19T23:21:12.903Z,48.46
2019-04-19T23:23:36.428Z,48.65
2019-04-19T23:26:17.584Z,48.89
2019-04-19T23:28:36.686Z,49.20
2019-04-19T23:31:08.436Z,49.13
2019-04-19T23:33:28.436Z,49.06
2019-04-19T23:35:55.547Z,49.41
2019-04-19T23:38:25.662Z,49.37
2019-04-19T23:40:51.009Z,49.63
2019-04-19T23:43:24.229Z,50.09
2019-04-19T23:45:47.967Z,50.14
2019-04-19T23:48:20.092Z,50.44
2019-04-19T23:50:42.607Z,50.75
2019-04-19T23:53:10.168Z,51.16
2019-04-19T23:55:36.663Z,51.21
2019-04-19T23:58:03.222Z,51.35
